KVPS/VPS METAR and TAF weather

Enter ICAO airport designator
Station Type Date Time Source
KVPS METAR 2020/04/04 11:56 UTC NOAA

KVPS 041156Z AUTO 00000KT 10SM CLR 13/11 A2998 RMK AO2 SLP159 T01320113 10156 20132 53005 $


Station Type Date Time Source
KVPS Decoded METAR 2020/04/04 11:56 UTC NOAA

Valparaiso / Eglin Air Force Base, FL, United States (KVPS) 30-29N 086-31W 29M
Apr 04, 2020 - 07:56 AM EDT / 2020.04.04 1156 UTC
Wind: Calm:0
Visibility: 10 mile(s):0
Sky conditions: clear
Temperature: 55.8 F (13.2 C)
Dew Point: 52.3 F (11.3 C)
Relative Humidity: 88%
Pressure (altimeter): 29.98 in. Hg (1015 hPa)
Pressure tendency: 0.01 inches (0.5 hPa) higher than three hours ago
ob: KVPS 041156Z AUTO 00000KT 10SM CLR 13/11 A2998 RMK AO2 SLP159 T01320113 10156 20132 53005
cycle: 12

Station Type Date Time Source
KVPS TAF 2020/04/04 09:10 UTC NOAA

TAF KVPS 040900Z 0409/0515 32006KT 9999 SCT120 BKN220 QNH2995INS
BECMG 0419/0420 19008KT 9999 BKN150 BKN200 QNH2991INS
BECMG 0500/0501 24006KT 9999 FEW045 BKN120 BKN200 QNH2993INS TX24/0420Z TN14/0411Z

Example: see airport list